Time;durP1;ratioP1;P1;durP2;ratioP2;P2;SDS_P1;SDS_P2;PMS_P1;PMS_P2;Temp;Humidity;BMP_temperature;BMP_pressure;BME280_temperature;BME280_humidity;BME280_pressure;Samples;Min_cycle;Max_cycle;Signal;HPM_P1;HPM_P2
2022/05/24 00:01:41;;;;;;;8.88;4.57;;;18.00;99.90;;;;;;4998975;28;20019;-85
2022/05/24 00:04:07;;;;;;;9.60;4.38;;;18.00;99.90;;;;;;4989343;28;20019;-84
2022/05/24 00:06:33;;;;;;;6.95;4.70;;;18.00;99.90;;;;;;4997017;28;20139;-85
2022/05/24 00:08:59;;;;;;;15.07;4.80;;;17.90;99.90;;;;;;4995787;28;20049;-84
2022/05/24 00:11:25;;;;;;;10.05;5.05;;;18.00;99.90;;;;;;4993039;28;20134;-83
2022/05/24 00:13:52;;;;;;;7.82;4.30;;;17.90;99.90;;;;;;5024667;23;20048;-85
2022/05/24 00:16:19;;;;;;;10.95;4.82;;;17.90;99.90;;;;;;4978393;28;20039;-86
2022/05/24 00:18:46;;;;;;;11.40;5.20;;;17.90;99.90;;;;;;4978663;28;20043;-87
2022/05/24 00:21:13;;;;;;;11.07;4.65;;;17.90;99.90;;;;;;4979048;28;20031;-86
2022/05/24 00:23:38;;;;;;;9.73;4.95;;;17.90;99.90;;;;;;4976353;28;20103;-87
2022/05/24 00:26:07;;;;;;;17.60;5.07;;;17.90;99.90;;;;;;4969481;29;20031;-87
2022/05/24 00:28:35;;;;;;;9.95;4.63;;;17.90;99.90;;;;;;4974105;29;20032;-86
2022/05/24 00:31:01;;;;;;;10.20;5.10;;;17.80;99.90;;;;;;4972606;29;20023;-86
2022/05/24 00:33:28;;;;;;;12.80;4.82;;;17.80;99.90;;;;;;4974104;29;20050;-86
2022/05/24 00:35:54;;;;;;;8.55;4.90;;;17.80;99.90;;;;;;4970788;28;20103;-87
2022/05/24 00:38:28;;;;;;;8.13;4.95;;;17.80;99.90;;;;;;4973869;28;20062;-87
2022/05/24 00:41:02;;;;;;;7.78;4.82;;;17.80;99.90;;;;;;4968670;29;20083;-87
2022/05/24 00:43:37;;;;;;;5.85;4.65;;;17.80;99.90;;;;;;4968419;28;20027;-86
2022/05/24 00:46:16;;;;;;;7.95;4.90;;;17.80;99.90;;;;;;4966288;29;20042;-87
2022/05/24 00:48:52;;;;;;;10.88;4.90;;;17.80;99.90;;;;;;4973553;29;20059;-87
2022/05/24 00:51:28;;;;;;;9.23;5.07;;;17.70;99.90;;;;;;4967155;29;20024;-86
2022/05/24 00:53:55;;;;;;;11.77;5.13;;;17.70;99.90;;;;;;4971373;28;20019;-86
2022/05/24 00:56:59;;;;;;;7.55;4.65;;;17.70;99.90;;;;;;4964579;28;20034;-87
2022/05/24 00:59:34;;;;;;;6.78;4.47;;;17.60;99.90;;;;;;4975847;28;20071;-86
2022/05/24 01:02:01;;;;;;;10.95;4.90;;;17.60;99.90;;;;;;4968289;28;20020;-86
2022/05/24 01:04:26;;;;;;;11.93;5.32;;;17.50;99.90;;;;;;4971899;28;20051;-85
2022/05/24 01:06:52;;;;;;;7.85;5.30;;;17.60;99.90;;;;;;4979873;28;20132;-86
2022/05/24 01:09:27;;;;;;;9.43;5.53;;;17.50;99.90;;;;;;4980101;28;20020;-85
2022/05/24 01:12:01;;;;;;;8.90;5.18;;;17.50;99.90;;;;;;4979714;28;20027;-85
2022/05/24 01:14:27;;;;;;;7.05;4.80;;;17.50;99.90;;;;;;4979937;28;20078;-83
2022/05/24 01:16:55;;;;;;;7.63;5.05;;;17.40;99.90;;;;;;4979835;28;20051;-86
2022/05/24 01:19:35;;;;;;;12.00;5.35;;;17.40;99.90;;;;;;4978288;28;20058;-87
2022/05/24 01:22:27;;;;;;;7.40;5.43;;;17.40;99.90;;;;;;4972094;29;20045;-87
2022/05/24 01:25:12;;;;;;;9.38;5.07;;;17.30;99.90;;;;;;4961455;29;20042;-87
2022/05/24 01:27:39;;;;;;;;;;;17.30;99.90;;;;;;4971188;29;20023;-87
2022/05/24 01:30:06;;;;;;;7.10;5.15;;;17.30;99.90;;;;;;4970014;29;19906;-87
2022/05/24 01:38:06;;;;;;;11.93;5.00;;;17.20;99.90;;;;;;4968945;29;20269;-85
2022/05/24 01:40:33;;;;;;;9.23;5.50;;;17.20;99.90;;;;;;4975185;29;20038;-87
2022/05/24 01:42:59;;;;;;;11.32;5.60;;;17.20;99.90;;;;;;4968705;28;20014;-86
2022/05/24 01:45:31;;;;;;;10.45;6.18;;;17.20;99.90;;;;;;4968393;29;20035;-85
2022/05/24 01:48:05;;;;;;;6.30;4.85;;;17.20;99.90;;;;;;4966389;28;20487;-86
2022/05/24 01:50:33;;;;;;;12.10;5.67;;;17.20;99.90;;;;;;4967713;29;20126;-86
2022/05/24 01:53:09;;;;;;;9.32;5.15;;;17.20;99.90;;;;;;4969932;28;20094;-86
2022/05/24 01:55:47;;;;;;;10.10;5.75;;;17.20;99.90;;;;;;4967865;29;20031;-87
2022/05/24 01:58:15;;;;;;;8.07;5.60;;;17.10;99.90;;;;;;4979053;28;20070;-86
2022/05/24 02:00:46;;;;;;;10.15;5.97;;;17.10;99.90;;;;;;4973950;28;20047;-87
2022/05/24 02:03:17;;;;;;;9.65;5.43;;;17.10;99.90;;;;;;4969330;29;20026;-86
2022/05/24 02:05:51;;;;;;;7.72;5.28;;;17.10;99.90;;;;;;4958137;29;20406;-88
2022/05/24 02:08:17;;;;;;;14.70;6.25;;;17.20;99.90;;;;;;4962221;28;20042;-86
2022/05/24 02:10:52;;;;;;;11.63;5.72;;;17.20;99.90;;;;;;4958384;29;20027;-86
2022/05/24 02:13:27;;;;;;;10.48;6.20;;;17.20;99.90;;;;;;4968883;28;20510;-85
2022/05/24 02:15:56;;;;;;;11.85;5.97;;;17.20;99.90;;;;;;4962640;29;20106;-85
2022/05/24 02:18:24;;;;;;;9.60;6.43;;;17.30;99.90;;;;;;4972484;28;20102;-85
2022/05/24 02:20:50;;;;;;;11.63;5.90;;;17.30;99.90;;;;;;4982279;28;20170;-85
2022/05/24 02:23:18;;;;;;;9.98;6.35;;;17.30;99.90;;;;;;4975584;28;20024;-86
2022/05/24 02:25:51;;;;;;;8.77;5.75;;;17.30;99.90;;;;;;4977157;28;20099;-86
2022/05/24 02:28:21;;;;;;;11.80;6.15;;;17.30;99.90;;;;;;4972622;29;20028;-86
2022/05/24 02:30:51;;;;;;;12.10;6.00;;;17.30;99.90;;;;;;4976991;28;20087;-86
2022/05/24 02:33:18;;;;;;;13.48;6.20;;;17.30;99.90;;;;;;4972387;28;20058;-86
2022/05/24 02:35:44;;;;;;;11.55;6.85;;;17.30;99.90;;;;;;4978649;28;20055;-86
2022/05/24 02:38:11;;;;;;;14.68;6.35;;;17.30;99.90;;;;;;4981592;28;20035;-85
2022/05/24 02:43:21;;;;;;;10.18;6.30;;;17.30;99.90;;;;;;4969912;28;20024;-86
2022/05/24 02:45:47;;;;;;;11.93;6.78;;;17.30;99.90;;;;;;4966070;28;20031;-86
2022/05/24 02:48:13;;;;;;;12.10;6.07;;;17.30;99.90;;;;;;4972707;29;20087;-87
2022/05/24 02:50:39;;;;;;;14.60;6.47;;;17.30;99.90;;;;;;4972019;29;20035;-87
2022/05/24 02:53:05;;;;;;;14.00;6.70;;;17.30;99.90;;;;;;4969180;29;20407;-87
2022/05/24 02:55:30;;;;;;;14.10;6.07;;;17.20;99.90;;;;;;4968211;29;20046;-87
2022/05/24 02:57:56;;;;;;;9.50;6.50;;;17.20;99.90;;;;;;4973607;29;20091;-87
2022/05/24 03:00:24;;;;;;;9.27;6.57;;;17.20;99.90;;;;;;4971735;28;21385;-87
2022/05/24 03:02:51;;;;;;;13.60;6.63;;;17.20;99.90;;;;;;4968461;28;20028;-87
2022/05/24 03:05:21;;;;;;;12.05;6.60;;;17.10;99.90;;;;;;4972845;28;20055;-87
2022/05/24 03:10:32;;;;;;;12.52;6.43;;;17.20;99.90;;;;;;4978128;28;20118;-87
2022/05/24 03:15:44;;;;;;;9.57;6.43;;;17.10;99.90;;;;;;4971101;29;20035;-86
2022/05/24 03:18:12;;;;;;;11.73;6.80;;;17.10;99.90;;;;;;4973816;29;20043;-86
2022/05/24 03:20:39;;;;;;;9.93;7.40;;;17.10;99.90;;;;;;4973232;29;20031;-86
2022/05/24 03:23:05;;;;;;;14.63;7.68;;;17.10;99.90;;;;;;4960892;29;20031;-86
2022/05/24 03:25:32;;;;;;;12.85;7.07;;;17.10;99.90;;;;;;4969069;29;20027;-85
2022/05/24 03:31:17;;;;;;;9.88;6.57;;;17.10;99.90;;;;;;4963953;28;20075;-88
2022/05/24 03:33:42;;;;;;;12.95;6.38;;;17.10;99.90;;;;;;4959531;29;20091;-88
2022/05/24 03:36:10;;;;;;;13.40;6.80;;;17.20;99.90;;;;;;4971127;28;20023;-88
2022/05/24 03:38:35;;;;;;;10.50;6.45;;;17.20;99.90;;;;;;4981467;28;20047;-87
2022/05/24 03:41:01;;;;;;;10.75;6.05;;;17.20;99.90;;;;;;4977940;28;20095;-89
2022/05/24 03:43:27;;;;;;;9.90;6.30;;;17.10;99.90;;;;;;4976218;28;20003;-86
2022/05/24 03:46:02;;;;;;;12.52;6.65;;;17.20;99.90;;;;;;4970409;29;20102;-85
2022/05/24 03:48:28;;;;;;;10.03;6.93;;;17.20;99.90;;;;;;4973314;29;20027;-88
2022/05/24 03:50:56;;;;;;;11.82;7.25;;;17.20;99.90;;;;;;4967156;29;20286;-86
2022/05/24 03:53:22;;;;;;;10.57;7.10;;;17.20;99.90;;;;;;4958576;29;20027;-87
2022/05/24 03:55:48;;;;;;;11.13;6.88;;;17.20;99.90;;;;;;4972006;29;20023;-87
2022/05/24 03:58:14;;;;;;;12.82;6.78;;;17.20;99.90;;;;;;4973977;29;20035;-87
2022/05/24 04:00:41;;;;;;;15.40;6.38;;;17.30;99.90;;;;;;4973753;29;20039;-88
2022/05/24 04:03:08;;;;;;;13.82;6.25;;;17.20;99.90;;;;;;4963308;29;20035;-87
2022/05/24 04:05:34;;;;;;;7.25;5.43;;;17.20;99.90;;;;;;4972612;29;20014;-87
2022/05/24 04:08:01;;;;;;;11.30;6.72;;;17.20;99.90;;;;;;4976745;28;20033;-87
2022/05/24 04:10:29;;;;;;;9.98;5.80;;;17.20;99.90;;;;;;4974137;28;20036;-85
2022/05/24 04:12:55;;;;;;;11.07;6.32;;;17.20;99.90;;;;;;4966730;28;20023;-87
2022/05/24 04:15:23;;;;;;;11.27;5.80;;;17.20;99.90;;;;;;4964893;28;20039;-87
2022/05/24 04:17:51;;;;;;;10.90;6.05;;;17.30;99.90;;;;;;4976487;29;20023;-86
2022/05/24 04:20:17;;;;;;;11.50;5.60;;;17.30;99.90;;;;;;4973104;29;20181;-88
2022/05/24 04:22:44;;;;;;;10.20;6.03;;;17.30;99.90;;;;;;4967537;29;20020;-86
2022/05/24 04:25:11;;;;;;;9.85;5.40;;;17.40;99.90;;;;;;4965882;29;20027;-87
2022/05/24 04:27:37;;;;;;;9.77;5.88;;;17.40;99.90;;;;;;4979944;28;20055;-89
2022/05/24 04:30:04;;;;;;;10.55;5.13;;;17.50;99.90;;;;;;4979754;28;20023;-86
2022/05/24 04:32:30;;;;;;;8.10;5.25;;;17.50;99.90;;;;;;4978794;28;20031;-88
2022/05/24 04:34:56;;;;;;;9.82;5.28;;;17.50;99.90;;;;;;4968201;28;20070;-86
2022/05/24 04:37:22;;;;;;;16.92;8.02;;;17.60;99.90;;;;;;4964362;29;20050;-87
2022/05/24 04:39:49;;;;;;;12.63;6.38;;;17.60;99.90;;;;;;4970918;29;20070;-85
2022/05/24 04:42:24;;;;;;;15.00;6.75;;;17.70;99.90;;;;;;4970386;28;20092;-86
2022/05/24 04:44:57;;;;;;;10.30;5.88;;;17.80;99.90;;;;;;4979733;28;20027;-87
2022/05/24 04:47:26;;;;;;;8.85;5.03;;;17.80;99.90;;;;;;4977847;28;20038;-87
2022/05/24 04:49:54;;;;;;;8.98;5.18;;;17.90;99.90;;;;;;4975175;28;20075;-87
2022/05/24 04:52:28;;;;;;;9.35;5.07;;;17.90;99.90;;;;;;4976974;28;20018;-88
2022/05/24 04:54:54;;;;;;;7.47;5.32;;;18.00;99.90;;;;;;4962104;28;20055;-88
2022/05/24 04:57:21;;;;;;;12.27;5.13;;;18.00;99.90;;;;;;4959293;28;20013;-89
2022/05/24 04:59:47;;;;;;;7.88;5.32;;;17.90;99.90;;;;;;4973418;28;20093;-89
2022/05/24 05:02:13;;;;;;;9.70;4.88;;;17.80;99.90;;;;;;4969383;29;20023;-87
2022/05/24 05:04:39;;;;;;;8.73;4.78;;;17.80;99.90;;;;;;4971295;28;20031;-89
2022/05/24 05:07:05;;;;;;;14.25;4.60;;;17.90;99.90;;;;;;4972491;29;20033;-87
2022/05/24 05:09:35;;;;;;;9.48;4.38;;;17.90;99.90;;;;;;4963902;29;20035;-88
2022/05/24 05:12:03;;;;;;;8.38;4.70;;;17.90;99.90;;;;;;4960407;29;20041;-90
2022/05/24 05:14:29;;;;;;;8.77;4.95;;;17.90;99.90;;;;;;4964242;29;20447;-86
2022/05/24 05:16:56;;;;;;;9.13;4.22;;;17.90;99.90;;;;;;4969027;29;20031;-89
2022/05/24 05:19:22;;;;;;;10.27;4.68;;;17.80;99.90;;;;;;4969628;29;20042;-87
2022/05/24 05:21:48;;;;;;;6.78;4.10;;;17.90;99.90;;;;;;4963575;28;20035;-89
2022/05/24 05:24:15;;;;;;;10.88;4.00;;;17.90;99.90;;;;;;4952678;29;20086;-86
2022/05/24 05:26:40;;;;;;;11.43;5.32;;;18.00;99.90;;;;;;4970915;29;20031;-86
2022/05/24 05:29:07;;;;;;;10.32;4.40;;;18.00;99.90;;;;;;4968829;29;20447;-88
2022/05/24 05:31:32;;;;;;;10.70;4.60;;;18.00;99.90;;;;;;4968260;28;20016;-87
2022/05/24 05:34:00;;;;;;;10.77;4.30;;;18.00;99.90;;;;;;4976865;28;20039;-87
2022/05/24 05:36:28;;;;;;;7.60;4.68;;;18.00;99.90;;;;;;4977844;28;20050;-87
2022/05/24 05:38:55;;;;;;;14.82;4.43;;;18.10;99.90;;;;;;4969585;29;20035;-89
2022/05/24 05:41:26;;;;;;;13.63;4.95;;;18.20;99.90;;;;;;4966991;29;20027;-89
2022/05/24 05:43:52;;;;;;;8.35;4.53;;;18.20;99.90;;;;;;4967322;28;20039;-88
2022/05/24 05:46:18;;;;;;;10.32;4.20;;;18.20;99.90;;;;;;4967897;29;20027;-88
2022/05/24 05:48:45;;;;;;;16.13;4.10;;;18.20;99.90;;;;;;4967582;29;20034;-88
2022/05/24 05:51:13;;;;;;;16.15;4.72;;;18.30;99.90;;;;;;4968698;28;20019;-86
2022/05/24 05:53:41;;;;;;;14.48;4.70;;;18.40;99.90;;;;;;4966640;29;20019;-88
2022/05/24 05:56:14;;;;;;;9.38;4.40;;;18.40;99.90;;;;;;4974615;28;20027;-89
2022/05/24 05:58:40;;;;;;;14.43;4.95;;;18.30;99.90;;;;;;4953767;29;20035;-88
2022/05/24 06:01:06;;;;;;;9.45;4.53;;;18.50;99.90;;;;;;4969819;29;20038;-89
2022/05/24 06:03:31;;;;;;;8.05;4.20;;;18.50;99.90;;;;;;4970534;28;20059;-87
2022/05/24 06:06:02;;;;;;;9.05;4.85;;;18.60;99.90;;;;;;4976050;28;20035;-86
2022/05/24 06:08:28;;;;;;;14.02;4.65;;;18.80;99.90;;;;;;4968598;29;20027;-86
2022/05/24 06:10:53;;;;;;;12.10;4.60;;;18.90;99.90;;;;;;4977274;28;20071;-85
2022/05/24 06:13:21;;;;;;;14.55;5.57;;;18.90;99.90;;;;;;4976204;28;20051;-88
2022/05/24 06:15:51;;;;;;;13.73;5.43;;;19.00;99.90;;;;;;5013545;23;20046;-89
2022/05/24 06:18:17;;;;;;;11.07;5.18;;;19.10;99.90;;;;;;5003743;28;20061;-89
2022/05/24 06:20:43;;;;;;;15.40;5.32;;;19.20;99.90;;;;;;5010960;28;20031;-89
2022/05/24 06:23:09;;;;;;;19.17;5.10;;;19.30;99.90;;;;;;5007083;28;20053;-86
2022/05/24 06:25:35;;;;;;;17.45;5.40;;;19.30;99.90;;;;;;5008706;28;20487;-86
2022/05/24 06:28:01;;;;;;;14.63;5.38;;;19.30;99.90;;;;;;5009032;28;20019;-86
2022/05/24 06:30:27;;;;;;;11.13;5.05;;;19.40;99.90;;;;;;5011925;28;20002;-83
2022/05/24 06:32:52;;;;;;;12.40;5.30;;;19.50;99.90;;;;;;5013592;28;20098;-84
2022/05/24 06:35:19;;;;;;;12.60;5.70;;;19.50;99.90;;;;;;5001318;28;20097;-85
2022/05/24 06:37:45;;;;;;;17.10;5.15;;;19.40;99.90;;;;;;5019884;28;20022;-84
2022/05/24 06:40:16;;;;;;;11.88;5.38;;;19.30;99.90;;;;;;5019736;28;20033;-84
2022/05/24 06:42:41;;;;;;;10.57;5.75;;;19.30;99.90;;;;;;5018445;28;20103;-85
2022/05/24 06:45:10;;;;;;;9.30;5.90;;;19.40;99.90;;;;;;5019672;28;20033;-86
2022/05/24 06:47:37;;;;;;;10.95;5.30;;;19.40;99.90;;;;;;5016834;28;20038;-84
2022/05/24 06:50:04;;;;;;;8.73;5.32;;;19.20;99.90;;;;;;5017313;28;20095;-85
2022/05/24 06:52:31;;;;;;;16.52;5.00;;;19.30;99.90;;;;;;5016677;28;20057;-86
2022/05/24 06:54:56;;;;;;;9.70;5.13;;;19.20;99.90;;;;;;5017704;28;20034;-85
2022/05/24 06:57:22;;;;;;;11.82;5.22;;;19.30;99.90;;;;;;5017989;28;20054;-85
2022/05/24 07:02:34;;;;;;;14.32;5.72;;;19.30;99.90;;;;;;5018791;28;20042;-86
2022/05/24 07:05:06;;;;;;;11.80;4.72;;;19.30;99.90;;;;;;5017608;28;20046;-86
2022/05/24 07:07:34;;;;;;;10.75;5.95;;;19.30;99.90;;;;;;5018364;28;20073;-84
2022/05/24 07:10:00;;;;;;;16.27;5.25;;;19.40;99.90;;;;;;5018616;28;20014;-87
2022/05/24 07:12:27;;;;;;;20.67;5.95;;;19.30;99.90;;;;;;5017145;28;20022;-82
2022/05/24 07:14:54;;;;;;;12.77;5.78;;;19.40;99.90;;;;;;5017051;28;20038;-85
2022/05/24 07:17:20;;;;;;;13.20;5.88;;;19.50;99.90;;;;;;5016869;28;20030;-84
2022/05/24 07:19:46;;;;;;;9.02;5.40;;;19.50;99.90;;;;;;5017051;28;20065;-85
2022/05/24 07:22:13;;;;;;;10.32;5.35;;;19.70;99.90;;;;;;5017064;28;20042;-86
2022/05/24 07:24:39;;;;;;;8.52;5.55;;;19.80;99.90;;;;;;5017533;28;20014;-85
2022/05/24 07:27:10;;;;;;;11.02;5.50;;;20.00;99.90;;;;;;5016369;28;20010;-84
2022/05/24 07:29:36;;;;;;;8.60;4.93;;;20.00;99.90;;;;;;5016464;28;20034;-85
2022/05/24 07:32:02;;;;;;;14.65;5.40;;;20.20;99.90;;;;;;5016686;28;20094;-83
2022/05/24 07:34:28;;;;;;;15.13;5.78;;;20.30;99.90;;;;;;5017877;28;20054;-84
2022/05/24 07:36:54;;;;;;;10.57;5.80;;;20.20;99.90;;;;;;5018929;28;20018;-84
2022/05/24 07:39:19;;;;;;;8.15;5.43;;;20.30;99.90;;;;;;5018366;28;20098;-83
2022/05/24 07:47:14;;;;;;;12.97;6.10;;;20.40;99.90;;;;;;5016736;28;20053;-84
2022/05/24 07:49:40;;;;;;;14.48;5.95;;;20.50;99.90;;;;;;5016792;28;20034;-85
2022/05/24 07:52:06;;;;;;;8.73;5.43;;;20.50;99.90;;;;;;5017747;28;20057;-83
2022/05/24 07:54:33;;;;;;;8.75;5.75;;;20.50;99.90;;;;;;5018511;28;20042;-84
2022/05/24 07:56:59;;;;;;;9.88;5.60;;;20.60;99.90;;;;;;5017355;28;20118;-86
2022/05/24 07:59:25;;;;;;;11.45;5.28;;;20.60;99.90;;;;;;5017031;28;20029;-84
2022/05/24 08:01:51;;;;;;;18.48;6.57;;;20.80;99.90;;;;;;5016820;28;20026;-85
2022/05/24 08:04:18;;;;;;;13.18;5.25;;;20.80;99.90;;;;;;5014138;28;20033;-82
2022/05/24 08:06:44;;;;;;;9.90;5.55;;;20.70;99.90;;;;;;5016049;28;20042;-86
2022/05/24 08:09:09;;;;;;;10.18;5.35;;;20.80;99.90;;;;;;5012639;28;20027;-87
2022/05/24 08:11:35;;;;;;;9.77;5.82;;;21.00;99.90;;;;;;5012020;28;20042;-88
2022/05/24 08:14:02;;;;;;;17.38;5.90;;;21.00;99.90;;;;;;5010171;28;20010;-86
2022/05/24 08:16:29;;;;;;;11.80;5.68;;;21.10;99.90;;;;;;5009160;28;20507;-87
2022/05/24 08:18:58;;;;;;;10.27;5.75;;;21.20;99.90;;;;;;5010954;28;20023;-86
2022/05/24 08:21:25;;;;;;;11.68;5.57;;;21.40;99.90;;;;;;5009725;28;20034;-88
2022/05/24 08:23:51;;;;;;;19.25;5.38;;;21.80;99.90;;;;;;5007878;28;20027;-85
2022/05/24 08:26:17;;;;;;;10.13;4.82;;;22.10;99.90;;;;;;4991819;28;20030;-87
2022/05/24 08:28:43;;;;;;;14.15;5.18;;;22.40;99.90;;;;;;5009155;28;20022;-84
2022/05/24 08:31:10;;;;;;;20.40;5.10;;;22.60;99.90;;;;;;5010933;28;20027;-87
2022/05/24 08:33:36;;;;;;;11.57;4.60;;;22.80;99.90;;;;;;5010802;28;20091;-86
2022/05/24 08:36:02;;;;;;;11.57;5.13;;;22.80;99.90;;;;;;5016549;28;20098;-83
2022/05/24 08:38:28;;;;;;;10.05;5.35;;;22.60;99.90;;;;;;5018387;28;20014;-82
2022/05/24 08:41:02;;;;;;;7.13;4.40;;;22.50;99.90;;;;;;5018109;28;20029;-84
2022/05/24 08:43:47;;;;;;;6.97;4.57;;;22.40;99.90;;;;;;5017709;28;20207;-81
2022/05/24 08:49:03;;;;;;;13.77;4.85;;;22.80;99.90;;;;;;5016607;28;20068;-84
2022/05/24 08:51:45;;;;;;;14.05;5.20;;;23.40;99.90;;;;;;5014986;28;20033;-87
2022/05/24 08:54:26;;;;;;;13.98;5.85;;;23.60;99.90;;;;;;5015021;28;20034;-84
2022/05/24 08:56:55;;;;;;;11.63;5.47;;;23.20;99.90;;;;;;5008976;28;20031;-86
2022/05/24 08:59:23;;;;;;;11.43;6.10;;;22.70;99.90;;;;;;5013022;28;20316;-85
2022/05/24 09:01:50;;;;;;;16.80;5.55;;;22.80;99.90;;;;;;5015814;28;20065;-85
2022/05/24 09:04:16;;;;;;;14.80;6.22;;;22.90;99.90;;;;;;5015815;28;20010;-85
2022/05/24 09:06:47;;;;;;;13.70;6.30;;;23.10;99.90;;;;;;5014658;28;20053;-83
2022/05/24 09:09:31;;;;;;;12.55;6.22;;;23.10;99.90;;;;;;5016357;28;20042;-84
2022/05/24 09:12:29;;;;;;;12.50;5.70;;;23.00;99.90;;;;;;5016984;28;20018;-85
2022/05/24 09:15:06;;;;;;;18.50;5.25;;;23.20;99.90;;;;;;5016398;28;20050;-85
2022/05/24 09:18:02;;;;;;;15.75;5.50;;;23.50;99.90;;;;;;5017665;28;20022;-83
2022/05/24 09:20:29;;;;;;;17.30;6.18;;;23.70;99.90;;;;;;5017811;28;20018;-81
2022/05/24 09:23:05;;;;;;;13.95;5.18;;;23.60;99.90;;;;;;5017826;28;20029;-83
2022/05/24 09:25:33;;;;;;;11.82;5.40;;;23.50;99.90;;;;;;5017307;28;20041;-83
2022/05/24 09:27:59;;;;;;;12.30;4.97;;;23.50;99.90;;;;;;5000759;28;20038;-84
2022/05/24 09:30:45;;;;;;;10.85;5.32;;;23.70;99.90;;;;;;5017546;28;20031;-83
2022/05/24 09:33:41;;;;;;;11.15;5.35;;;23.80;99.90;;;;;;5017158;28;20029;-85
2022/05/24 09:36:07;;;;;;;;;;;23.80;99.90;;;;;;5016019;28;20038;-84
2022/05/24 09:38:36;;;;;;;12.80;5.60;;;24.00;99.90;;;;;;5016892;28;19932;-87
2022/05/24 09:41:19;;;;;;;11.18;5.35;;;24.10;99.90;;;;;;5016109;28;20035;-86
2022/05/24 09:43:59;;;;;;;14.07;6.00;;;24.70;99.90;;;;;;5013281;28;20030;-86
2022/05/24 09:46:26;;;;;;;10.70;5.40;;;25.40;99.90;;;;;;5016873;28;20054;-87
2022/05/24 09:49:01;;;;;;;10.45;4.93;;;25.30;99.90;;;;;;5016119;28;20058;-84
2022/05/24 09:51:41;;;;;;;;;;;25.90;99.90;;;;;;5015286;28;20058;-87
2022/05/24 09:54:17;;;;;;;12.23;5.22;;;26.90;99.90;;;;;;5011200;28;19916;-86
2022/05/24 09:57:00;;;;;;;10.05;4.88;;;26.40;99.90;;;;;;5011001;28;20058;-86
2022/05/24 09:59:28;;;;;;;7.35;4.60;;;26.10;99.90;;;;;;5008398;28;20058;-87
2022/05/24 10:01:54;;;;;;;15.85;4.93;;;26.10;99.90;;;;;;5009619;28;20029;-85
2022/05/24 10:04:50;;;;;;;9.70;4.70;;;26.00;99.90;;;;;;5008714;28;20034;-86
2022/05/24 10:07:30;;;;;;;12.88;5.50;;;25.60;99.90;;;;;;4997502;28;20051;-84
2022/05/24 10:09:56;;;;;;;10.50;4.85;;;25.20;99.90;;;;;;4990877;28;20030;-83
2022/05/24 10:12:31;;;;;;;8.50;5.57;;;25.30;99.90;;;;;;5010139;28;20082;-87
2022/05/24 10:15:23;;;;;;;13.20;5.18;;;25.30;99.90;;;;;;5010441;28;20030;-85
2022/05/24 10:18:02;;;;;;;6.55;4.22;;;25.40;99.90;;;;;;4997733;28;20038;-86
2022/05/24 10:20:49;;;;;;;7.60;3.30;;;26.00;99.90;;;;;;5005858;28;20092;-86
2022/05/24 10:23:40;;;;;;;9.77;4.25;;;26.60;99.90;;;;;;5006411;28;20413;-87
2022/05/24 10:26:43;;;;;;;7.03;4.50;;;26.70;99.50;;;;;;5007268;28;20534;-89
2022/05/24 10:29:27;;;;;;;10.35;4.72;;;26.60;99.40;;;;;;5012114;28;20023;-85
2022/05/24 10:31:56;;;;;;;9.57;4.07;;;26.80;99.40;;;;;;5018624;28;20029;-87
2022/05/24 10:41:14;;;;;;;8.35;3.83;;;27.90;97.60;;;;;;4987572;28;20027;-87
2022/05/24 10:43:49;;;;;;;11.90;4.10;;;27.50;97.70;;;;;;4934866;29;20450;-88
2022/05/24 10:46:20;;;;;;;8.02;4.00;;;27.10;98.10;;;;;;5023476;28;20042;-88
2022/05/24 10:48:51;;;;;;;7.10;3.78;;;27.10;98.20;;;;;;5025875;28;20478;-89
2022/05/24 10:51:23;;;;;;;5.65;3.78;;;27.00;98.20;;;;;;5008758;28;20081;-88
2022/05/24 10:53:56;;;;;;;7.03;3.80;;;26.70;98.60;;;;;;5027044;28;20026;-87
2022/05/24 10:56:32;;;;;;;9.07;3.97;;;26.50;98.80;;;;;;5027075;28;20030;-87
2022/05/24 10:59:05;;;;;;;6.30;3.95;;;26.30;98.80;;;;;;5025906;28;20028;-89
2022/05/24 11:01:55;;;;;;;9.13;4.43;;;26.30;99.00;;;;;;5028384;28;20045;-87
2022/05/24 11:04:26;;;;;;;6.03;3.55;;;27.00;98.50;;;;;;5032638;28;20072;-83
2022/05/24 11:07:03;;;;;;;5.13;3.55;;;28.40;97.20;;;;;;5039792;28;20038;-82
2022/05/24 11:09:34;;;;;;;8.75;3.30;;;30.00;95.50;;;;;;5040836;28;20029;-85
2022/05/24 11:12:06;;;;;;;6.20;3.40;;;31.00;93.90;;;;;;5040336;28;20026;-84
2022/05/24 11:14:57;;;;;;;6.25;3.17;;;32.30;92.10;;;;;;5039193;28;20072;-85
2022/05/24 11:17:23;;;;;;;5.18;2.65;;;33.90;88.30;;;;;;5040102;28;20033;-84
2022/05/24 11:19:52;;;;;;;10.70;3.22;;;34.20;85.40;;;;;;5039222;28;20026;-84
2022/05/24 11:22:31;;;;;;;5.82;3.20;;;34.30;83.20;;;;;;5035131;28;20071;-85
2022/05/24 11:25:15;;;;;;;7.13;2.80;;;34.90;80.80;;;;;;5028216;28;20026;-86
2022/05/24 11:27:46;;;;;;;7.95;3.28;;;35.00;79.50;;;;;;5028218;28;20026;-88
2022/05/24 11:30:18;;;;;;;6.55;2.63;;;35.10;77.80;;;;;;5005352;28;20041;-85
2022/05/24 11:33:09;;;;;;;6.78;3.50;;;35.10;77.00;;;;;;5013701;28;20034;-87
2022/05/24 11:35:39;;;;;;;4.57;3.25;;;35.30;75.70;;;;;;5006741;28;20065;-88
2022/05/24 11:38:23;;;;;;;9.75;3.30;;;35.30;74.80;;;;;;5004863;28;20026;-87
2022/05/24 11:40:55;;;;;;;8.18;3.22;;;34.60;74.40;;;;;;5004107;28;20046;-87
2022/05/24 11:43:36;;;;;;;10.25;3.05;;;33.50;76.00;;;;;;5004754;28;20026;-84
2022/05/24 11:46:07;;;;;;;7.07;2.95;;;33.50;76.40;;;;;;5005712;28;20086;-84
2022/05/24 11:48:48;;;;;;;6.03;3.25;;;33.00;76.70;;;;;;5006324;28;20033;-87
2022/05/24 11:51:44;;;;;;;6.95;3.45;;;31.60;78.60;;;;;;4987645;28;20022;-86
2022/05/24 11:54:16;;;;;;;9.00;3.60;;;30.40;80.60;;;;;;5002914;28;20433;-86
2022/05/24 11:56:55;;;;;;;7.88;3.25;;;29.50;83.00;;;;;;5004865;28;20057;-87
2022/05/24 11:59:54;;;;;;;7.93;3.60;;;28.60;84.90;;;;;;5007413;28;20023;-87
2022/05/24 12:02:19;;;;;;;7.53;3.42;;;27.70;87.20;;;;;;4962875;28;20066;-87
2022/05/24 12:08:30;;;;;;;9.13;4.15;;;26.80;89.90;;;;;;4992134;28;20030;-86
2022/05/24 12:11:05;;;;;;;7.22;4.28;;;26.60;90.40;;;;;;5013266;28;20053;-88
2022/05/24 12:13:50;;;;;;;9.88;4.20;;;26.40;90.70;;;;;;5016258;28;20030;-86
2022/05/24 12:16:36;;;;;;;7.43;3.92;;;26.20;91.00;;;;;;5011527;23;20062;-84
2022/05/24 12:19:04;;;;;;;9.85;4.07;;;26.20;91.50;;;;;;4973537;29;20066;-86
2022/05/24 12:21:55;;;;;;;6.95;3.80;;;26.20;91.70;;;;;;4972384;28;20031;-86
2022/05/24 12:24:24;;;;;;;8.50;3.92;;;26.40;91.70;;;;;;4970103;29;20131;-84
2022/05/24 12:27:27;;;;;;;11.10;4.53;;;26.40;91.60;;;;;;4970499;28;20031;-85
2022/05/24 12:30:16;;;;;;;6.97;4.00;;;26.00;92.00;;;;;;4970256;29;20027;-86
2022/05/24 12:32:41;;;;;;;10.25;4.47;;;25.90;92.30;;;;;;4959824;28;20467;-85
2022/05/24 12:35:11;;;;;;;11.00;3.88;;;25.90;92.80;;;;;;4970485;28;20042;-86
2022/05/24 12:37:46;;;;;;;7.80;4.10;;;26.00;92.70;;;;;;4968238;29;20471;-85
2022/05/24 12:40:14;;;;;;;11.98;4.10;;;25.80;92.90;;;;;;4973803;28;20050;-85
2022/05/24 12:42:52;;;;;;;9.60;3.90;;;25.80;93.10;;;;;;4972675;28;20023;-84
2022/05/24 12:45:32;;;;;;;7.00;4.07;;;25.80;93.20;;;;;;4971097;28;20035;-83
2022/05/24 12:47:58;;;;;;;18.98;4.32;;;25.70;93.20;;;;;;4971551;28;20031;-83
2022/05/24 12:50:26;;;;;;;8.07;4.38;;;25.60;93.50;;;;;;4971371;28;20027;-83
2022/05/24 12:53:03;;;;;;;9.00;4.60;;;25.60;93.60;;;;;;4972824;29;20038;-83
2022/05/24 12:58:43;;;;;;;12.65;4.15;;;25.50;93.60;;;;;;4971979;29;20031;-87
2022/05/24 13:01:15;;;;;;;9.15;4.90;;;25.40;93.90;;;;;;4969633;28;20054;-85
2022/05/24 13:04:09;;;;;;;7.65;4.60;;;25.50;94.30;;;;;;4972808;29;20130;-86
2022/05/24 13:07:29;;;;;;;13.45;4.45;;;25.50;94.20;;;;;;4974920;28;20039;-84
2022/05/24 13:09:55;;;;;;;11.00;4.55;;;25.60;94.10;;;;;;4977854;28;20029;-81
2022/05/24 13:12:21;;;;;;;8.70;4.55;;;25.50;94.30;;;;;;4977455;28;20027;-83
2022/05/24 13:15:02;;;;;;;8.13;4.60;;;25.20;94.50;;;;;;4978157;28;20054;-83
2022/05/24 13:17:30;;;;;;;14.38;4.75;;;25.00;94.90;;;;;;4973182;28;20099;-86
2022/05/24 13:20:30;;;;;;;8.77;4.72;;;25.10;95.00;;;;;;4969282;28;20034;-87
2022/05/24 13:23:21;;;;;;;10.35;4.80;;;25.20;95.00;;;;;;4938609;29;20058;-85
2022/05/24 13:25:55;;;;;;;9.50;4.53;;;25.50;94.80;;;;;;4962551;28;20106;-86
2022/05/24 13:28:36;;;;;;;6.97;4.32;;;25.60;94.70;;;;;;4953933;29;20043;-86
2022/05/24 13:33:51;;;;;;;11.02;4.50;;;25.50;94.90;;;;;;4969315;29;20156;-84
2022/05/24 13:36:19;;;;;;;18.40;5.05;;;25.30;95.00;;;;;;4972749;28;20047;-82
2022/05/24 13:38:53;;;;;;;11.05;5.50;;;25.00;95.30;;;;;;4976955;28;20058;-83
2022/05/24 13:41:32;;;;;;;8.20;4.90;;;24.80;95.50;;;;;;4976304;28;20095;-83
2022/05/24 13:44:16;;;;;;;9.35;4.88;;;25.00;95.60;;;;;;4972974;28;20031;-86
2022/05/24 13:47:06;;;;;;;9.52;4.97;;;25.00;95.50;;;;;;4971934;28;20039;-84
2022/05/24 13:49:39;;;;;;;9.40;5.25;;;25.00;95.50;;;;;;4977007;28;20046;-83